sensor_id;sensor_type;location;lat;lon;timestamp;P1;durP1;ratioP1;P2;durP2;ratioP2
62010;SDS011;47967;51.756;10.174;2023-04-03T04:02:36;5.95;;;1.88;;
62010;SDS011;47967;51.756;10.174;2023-04-03T04:06:39;6.13;;;1.85;;
62010;SDS011;47967;51.756;10.174;2023-04-03T04:10:44;3.38;;;1.50;;
62010;SDS011;47967;51.756;10.174;2023-04-03T04:14:48;1.92;;;1.38;;
62010;SDS011;47967;51.756;10.174;2023-04-03T04:18:52;8.93;;;1.70;;
62010;SDS011;47967;51.756;10.174;2023-04-03T04:22:56;2.80;;;1.58;;
62010;SDS011;47967;51.756;10.174;2023-04-03T04:27:00;2.08;;;1.40;;
62010;SDS011;47967;51.756;10.174;2023-04-03T04:31:04;5.25;;;1.45;;
62010;SDS011;47967;51.756;10.174;2023-04-03T04:35:08;4.50;;;1.60;;
62010;SDS011;47967;51.756;10.174;2023-04-03T04:39:15;5.63;;;1.40;;
62010;SDS011;47967;51.756;10.174;2023-04-03T04:43:17;1.95;;;1.52;;
62010;SDS011;47967;51.756;10.174;2023-04-03T04:47:23;6.97;;;2.13;;
62010;SDS011;47967;51.756;10.174;2023-04-03T04:51:27;8.20;;;2.80;;
62010;SDS011;47967;51.756;10.174;2023-04-03T04:55:42;5.45;;;2.78;;
62010;SDS011;47967;51.756;10.174;2023-04-03T04:59:45;8.18;;;2.97;;
62010;SDS011;47967;51.756;10.174;2023-04-03T05:03:47;5.78;;;2.35;;
62010;SDS011;47967;51.756;10.174;2023-04-03T05:07:53;5.88;;;1.73;;
62010;SDS011;47967;51.756;10.174;2023-04-03T05:11:55;5.57;;;2.33;;
62010;SDS011;47967;51.756;10.174;2023-04-03T05:16:01;6.00;;;1.80;;
62010;SDS011;47967;51.756;10.174;2023-04-03T05:20:05;6.97;;;1.70;;
62010;SDS011;47967;51.756;10.174;2023-04-03T05:24:09;3.95;;;1.70;;
62010;SDS011;47967;51.756;10.174;2023-04-03T05:28:15;6.90;;;2.33;;
62010;SDS011;47967;51.756;10.174;2023-04-03T05:32:18;6.68;;;2.40;;
62010;SDS011;47967;51.756;10.174;2023-04-03T05:36:24;6.18;;;2.35;;
62010;SDS011;47967;51.756;10.174;2023-04-03T05:40:34;2.88;;;1.70;;
62010;SDS011;47967;51.756;10.174;2023-04-03T05:44:37;5.97;;;1.98;;
62010;SDS011;47967;51.756;10.174;2023-04-03T05:48:40;2.65;;;1.95;;
62010;SDS011;47967;51.756;10.174;2023-04-03T05:52:45;5.55;;;1.80;;
62010;SDS011;47967;51.756;10.174;2023-04-03T05:56:53;4.43;;;1.70;;
62010;SDS011;47967;51.756;10.174;2023-04-03T06:00:57;4.93;;;1.48;;
62010;SDS011;47967;51.756;10.174;2023-04-03T06:05:00;6.53;;;1.55;;
62010;SDS011;47967;51.756;10.174;2023-04-03T06:09:02;5.30;;;1.55;;
62010;SDS011;47967;51.756;10.174;2023-04-03T06:13:07;5.10;;;1.33;;
62010;SDS011;47967;51.756;10.174;2023-04-03T06:17:09;2.67;;;1.20;;
62010;SDS011;47967;51.756;10.174;2023-04-03T06:21:13;6.10;;;1.30;;
62010;SDS011;47967;51.756;10.174;2023-04-03T06:25:16;3.25;;;1.25;;
62010;SDS011;47967;51.756;10.174;2023-04-03T06:29:21;1.10;;;0.85;;
62010;SDS011;47967;51.756;10.174;2023-04-03T06:33:24;2.25;;;1.17;;
62010;SDS011;47967;51.756;10.174;2023-04-03T06:37:27;3.35;;;1.30;;
62010;SDS011;47967;51.756;10.174;2023-04-03T06:41:31;1.20;;;1.10;;
62010;SDS011;47967;51.756;10.174;2023-04-03T06:45:36;3.70;;;1.23;;
62010;SDS011;47967;51.756;10.174;2023-04-03T06:49:39;3.80;;;1.30;;
62010;SDS011;47967;51.756;10.174;2023-04-03T06:53:42;3.75;;;1.08;;
62010;SDS011;47967;51.756;10.174;2023-04-03T06:57:45;4.53;;;1.50;;
62010;SDS011;47967;51.756;10.174;2023-04-03T07:01:48;2.00;;;1.00;;
62010;SDS011;47967;51.756;10.174;2023-04-03T07:05:52;4.03;;;1.27;;
62010;SDS011;47967;51.756;10.174;2023-04-03T07:09:54;2.27;;;1.10;;
62010;SDS011;47967;51.756;10.174;2023-04-03T07:13:57;4.87;;;1.27;;
62010;SDS011;47967;51.756;10.174;2023-04-03T07:18:01;3.80;;;1.20;;
62010;SDS011;47967;51.756;10.174;2023-04-03T07:22:03;2.47;;;1.20;;
62010;SDS011;47967;51.756;10.174;2023-04-03T07:26:06;3.10;;;1.43;;
62010;SDS011;47967;51.756;10.174;2023-04-03T07:30:09;2.78;;;1.13;;
62010;SDS011;47967;51.756;10.174;2023-04-03T07:34:16;1.63;;;0.90;;
62010;SDS011;47967;51.756;10.174;2023-04-03T07:38:19;2.33;;;1.15;;
62010;SDS011;47967;51.756;10.174;2023-04-03T07:42:21;4.43;;;0.93;;
62010;SDS011;47967;51.756;10.174;2023-04-03T07:46:24;3.03;;;1.30;;
62010;SDS011;47967;51.756;10.174;2023-04-03T07:50:28;9.68;;;1.10;;
62010;SDS011;47967;51.756;10.174;2023-04-03T07:54:32;3.25;;;1.08;;
62010;SDS011;47967;51.756;10.174;2023-04-03T07:58:36;4.85;;;1.33;;
62010;SDS011;47967;51.756;10.174;2023-04-03T08:02:39;6.43;;;1.23;;
62010;SDS011;47967;51.756;10.174;2023-04-03T08:06:43;2.70;;;0.93;;
62010;SDS011;47967;51.756;10.174;2023-04-03T08:10:48;1.38;;;0.60;;
62010;SDS011;47967;51.756;10.174;2023-04-03T08:14:52;3.05;;;0.75;;
62010;SDS011;47967;51.756;10.174;2023-04-03T08:18:55;3.03;;;0.87;;
62010;SDS011;47967;51.756;10.174;2023-04-03T08:22:59;1.08;;;0.85;;
62010;SDS011;47967;51.756;10.174;2023-04-03T08:27:01;3.72;;;0.85;;
62010;SDS011;47967;51.756;10.174;2023-04-03T08:31:04;5.27;;;1.17;;
62010;SDS011;47967;51.756;10.174;2023-04-03T08:35:08;3.33;;;1.02;;
62010;SDS011;47967;51.756;10.174;2023-04-03T08:39:13;1.20;;;0.77;;
62010;SDS011;47967;51.756;10.174;2023-04-03T08:43:24;3.55;;;0.80;;
62010;SDS011;47967;51.756;10.174;2023-04-03T08:47:37;1.20;;;0.70;;
62010;SDS011;47967;51.756;10.174;2023-04-03T08:51:42;1.10;;;0.65;;
62010;SDS011;47967;51.756;10.174;2023-04-03T08:55:50;2.70;;;0.70;;
62010;SDS011;47967;51.756;10.174;2023-04-03T08:59:55;5.22;;;1.60;;
62010;SDS011;47967;51.756;10.174;2023-04-03T09:04:00;2.15;;;0.98;;
62010;SDS011;47967;51.756;10.174;2023-04-03T09:08:04;3.00;;;1.33;;
62010;SDS011;47967;51.756;10.174;2023-04-03T09:12:15;5.75;;;3.10;;
62010;SDS011;47967;51.756;10.174;2023-04-03T09:16:25;2.15;;;0.82;;
62010;SDS011;47967;51.756;10.174;2023-04-03T09:24:44;3.45;;;1.70;;
62010;SDS011;47967;51.756;10.174;2023-04-03T09:28:50;1.77;;;0.90;;
62010;SDS011;47967;51.756;10.174;2023-04-03T09:32:53;2.63;;;1.10;;
62010;SDS011;47967;51.756;10.174;2023-04-03T09:36:57;2.53;;;0.90;;
62010;SDS011;47967;51.756;10.174;2023-04-03T09:41:12;4.90;;;1.50;;
62010;SDS011;47967;51.756;10.174;2023-04-03T09:45:22;4.28;;;1.10;;
62010;SDS011;47967;51.756;10.174;2023-04-03T09:49:26;2.83;;;0.90;;
62010;SDS011;47967;51.756;10.174;2023-04-03T09:53:31;3.72;;;1.13;;
62010;SDS011;47967;51.756;10.174;2023-04-03T09:57:36;1.77;;;1.00;;
62010;SDS011;47967;51.756;10.174;2023-04-03T10:01:41;5.13;;;2.20;;
62010;SDS011;47967;51.756;10.174;2023-04-03T10:05:45;1.92;;;1.42;;
62010;SDS011;47967;51.756;10.174;2023-04-03T10:09:54;1.83;;;1.02;;
62010;SDS011;47967;51.756;10.174;2023-04-03T10:13:58;2.75;;;0.85;;
62010;SDS011;47967;51.756;10.174;2023-04-03T10:18:06;2.55;;;1.20;;
62010;SDS011;47967;51.756;10.174;2023-04-03T10:22:28;3.03;;;1.33;;
62010;SDS011;47967;51.756;10.174;2023-04-03T10:26:41;5.55;;;1.50;;
62010;SDS011;47967;51.756;10.174;2023-04-03T10:30:52;11.10;;;3.67;;
62010;SDS011;47967;51.756;10.174;2023-04-03T10:35:06;4.88;;;1.23;;
62010;SDS011;47967;51.756;10.174;2023-04-03T10:39:17;4.13;;;1.20;;
62010;SDS011;47967;51.756;10.174;2023-04-03T10:43:32;4.47;;;1.50;;
62010;SDS011;47967;51.756;10.174;2023-04-03T10:47:40;2.70;;;1.40;;
62010;SDS011;47967;51.756;10.174;2023-04-03T10:51:51;1.02;;;0.90;;
62010;SDS011;47967;51.756;10.174;2023-04-03T10:56:03;4.93;;;1.13;;
62010;SDS011;47967;51.756;10.174;2023-04-03T11:00:14;4.15;;;1.17;;
62010;SDS011;47967;51.756;10.174;2023-04-03T11:04:20;3.08;;;0.90;;
62010;SDS011;47967;51.756;10.174;2023-04-03T11:08:28;0.95;;;0.82;;
62010;SDS011;47967;51.756;10.174;2023-04-03T11:12:38;1.73;;;0.65;;
62010;SDS011;47967;51.756;10.174;2023-04-03T11:16:47;3.90;;;1.15;;
62010;SDS011;47967;51.756;10.174;2023-04-03T11:20:57;2.25;;;1.05;;
62010;SDS011;47967;51.756;10.174;2023-04-03T11:25:08;1.73;;;1.00;;
62010;SDS011;47967;51.756;10.174;2023-04-03T11:29:22;1.65;;;1.08;;
62010;SDS011;47967;51.756;10.174;2023-04-03T11:33:37;1.00;;;0.80;;
62010;SDS011;47967;51.756;10.174;2023-04-03T11:37:48;2.40;;;1.33;;
62010;SDS011;47967;51.756;10.174;2023-04-03T11:41:54;2.60;;;0.63;;
62010;SDS011;47967;51.756;10.174;2023-04-03T11:46:12;1.77;;;0.90;;
62010;SDS011;47967;51.756;10.174;2023-04-03T11:54:45;8.98;;;2.70;;
62010;SDS011;47967;51.756;10.174;2023-04-03T12:08:16;4.50;;;1.75;;
62010;SDS011;47967;51.756;10.174;2023-04-03T12:12:37;3.03;;;1.40;;
62010;SDS011;47967;51.756;10.174;2023-04-03T12:16:43;3.95;;;1.58;;
62010;SDS011;47967;51.756;10.174;2023-04-03T12:20:55;2.47;;;1.20;;
62010;SDS011;47967;51.756;10.174;2023-04-03T12:24:58;3.67;;;1.63;;
62010;SDS011;47967;51.756;10.174;2023-04-03T12:29:38;4.68;;;1.13;;
62010;SDS011;47967;51.756;10.174;2023-04-03T12:38:30;3.22;;;1.23;;
62010;SDS011;47967;51.756;10.174;2023-04-03T12:47:23;7.15;;;1.38;;
62010;SDS011;47967;51.756;10.174;2023-04-03T12:51:31;3.38;;;1.00;;
62010;SDS011;47967;51.756;10.174;2023-04-03T12:55:39;2.65;;;1.17;;
62010;SDS011;47967;51.756;10.174;2023-04-03T12:59:41;2.47;;;0.80;;
62010;SDS011;47967;51.756;10.174;2023-04-03T13:03:49;1.10;;;0.88;;
62010;SDS011;47967;51.756;10.174;2023-04-03T13:07:56;1.58;;;1.20;;
62010;SDS011;47967;51.756;10.174;2023-04-03T13:12:03;3.38;;;1.20;;
62010;SDS011;47967;51.756;10.174;2023-04-03T13:16:16;2.53;;;1.48;;
62010;SDS011;47967;51.756;10.174;2023-04-03T13:20:23;3.17;;;1.13;;
62010;SDS011;47967;51.756;10.174;2023-04-03T13:24:27;2.03;;;1.08;;
62010;SDS011;47967;51.756;10.174;2023-04-03T13:28:32;2.65;;;1.05;;
62010;SDS011;47967;51.756;10.174;2023-04-03T13:32:36;2.17;;;1.00;;
62010;SDS011;47967;51.756;10.174;2023-04-03T13:36:40;2.17;;;1.03;;
62010;SDS011;47967;51.756;10.174;2023-04-03T13:40:47;1.80;;;0.90;;
62010;SDS011;47967;51.756;10.174;2023-04-03T13:45:06;5.03;;;1.25;;
62010;SDS011;47967;51.756;10.174;2023-04-03T13:49:18;3.22;;;1.25;;
62010;SDS011;47967;51.756;10.174;2023-04-03T13:53:23;2.65;;;1.77;;
62010;SDS011;47967;51.756;10.174;2023-04-03T13:57:27;2.83;;;1.48;;
62010;SDS011;47967;51.756;10.174;2023-04-03T14:01:34;2.67;;;1.23;;
62010;SDS011;47967;51.756;10.174;2023-04-03T14:05:42;1.58;;;1.00;;
62010;SDS011;47967;51.756;10.174;2023-04-03T14:09:47;2.72;;;1.13;;
62010;SDS011;47967;51.756;10.174;2023-04-03T14:13:51;3.53;;;1.25;;
62010;SDS011;47967;51.756;10.174;2023-04-03T14:17:53;3.23;;;1.07;;
62010;SDS011;47967;51.756;10.174;2023-04-03T14:21:57;1.50;;;0.85;;
62010;SDS011;47967;51.756;10.174;2023-04-03T14:26:02;3.83;;;1.30;;
62010;SDS011;47967;51.756;10.174;2023-04-03T14:30:08;1.75;;;1.00;;
62010;SDS011;47967;51.756;10.174;2023-04-03T14:34:15;4.55;;;1.30;;
62010;SDS011;47967;51.756;10.174;2023-04-03T14:38:23;2.90;;;1.05;;
62010;SDS011;47967;51.756;10.174;2023-04-03T14:42:28;4.28;;;1.10;;
62010;SDS011;47967;51.756;10.174;2023-04-03T14:46:34;2.25;;;1.00;;
62010;SDS011;47967;51.756;10.174;2023-04-03T14:50:56;2.78;;;1.27;;
62010;SDS011;47967;51.756;10.174;2023-04-03T14:55:06;5.25;;;2.20;;
62010;SDS011;47967;51.756;10.174;2023-04-03T14:59:10;4.10;;;1.15;;
62010;SDS011;47967;51.756;10.174;2023-04-03T15:03:16;1.77;;;1.10;;
62010;SDS011;47967;51.756;10.174;2023-04-03T15:07:21;2.63;;;1.20;;
62010;SDS011;47967;51.756;10.174;2023-04-03T15:11:25;2.60;;;0.82;;
62010;SDS011;47967;51.756;10.174;2023-04-03T15:15:29;1.48;;;1.17;;
62010;SDS011;47967;51.756;10.174;2023-04-03T15:19:32;3.72;;;1.40;;
62010;SDS011;47967;51.756;10.174;2023-04-03T15:23:38;4.78;;;1.30;;
62010;SDS011;47967;51.756;10.174;2023-04-03T15:27:41;1.57;;;1.23;;
62010;SDS011;47967;51.756;10.174;2023-04-03T15:31:45;2.80;;;1.23;;
62010;SDS011;47967;51.756;10.174;2023-04-03T15:35:48;28.13;;;1.85;;
62010;SDS011;47967;51.756;10.174;2023-04-03T15:39:50;3.77;;;1.30;;
62010;SDS011;47967;51.756;10.174;2023-04-03T15:43:53;2.42;;;1.50;;
62010;SDS011;47967;51.756;10.174;2023-04-03T15:47:57;4.77;;;1.30;;
62010;SDS011;47967;51.756;10.174;2023-04-03T15:52:00;2.38;;;1.38;;
62010;SDS011;47967;51.756;10.174;2023-04-03T15:56:03;6.77;;;1.20;;
62010;SDS011;47967;51.756;10.174;2023-04-03T16:00:06;2.88;;;1.30;;
62010;SDS011;47967;51.756;10.174;2023-04-03T16:04:11;1.77;;;0.90;;
62010;SDS011;47967;51.756;10.174;2023-04-03T16:08:16;1.70;;;1.50;;
62010;SDS011;47967;51.756;10.174;2023-04-03T16:12:19;3.58;;;1.88;;
62010;SDS011;47967;51.756;10.174;2023-04-03T16:16:21;3.33;;;1.35;;
62010;SDS011;47967;51.756;10.174;2023-04-03T16:20:26;1.52;;;1.00;;
62010;SDS011;47967;51.756;10.174;2023-04-03T16:24:29;5.80;;;1.30;;
62010;SDS011;47967;51.756;10.174;2023-04-03T16:32:36;4.82;;;1.50;;
62010;SDS011;47967;51.756;10.174;2023-04-03T16:36:41;3.35;;;1.40;;
62010;SDS011;47967;51.756;10.174;2023-04-03T16:40:44;4.45;;;1.83;;
62010;SDS011;47967;51.756;10.174;2023-04-03T16:44:47;4.63;;;1.50;;
62010;SDS011;47967;51.756;10.174;2023-04-03T16:48:49;2.60;;;1.50;;
62010;SDS011;47967;51.756;10.174;2023-04-03T16:52:53;6.37;;;1.40;;
62010;SDS011;47967;51.756;10.174;2023-04-03T16:56:56;4.25;;;1.63;;
62010;SDS011;47967;51.756;10.174;2023-04-03T17:00:58;3.97;;;1.80;;
62010;SDS011;47967;51.756;10.174;2023-04-03T17:05:10;2.35;;;1.30;;
62010;SDS011;47967;51.756;10.174;2023-04-03T17:09:14;5.00;;;2.00;;
62010;SDS011;47967;51.756;10.174;2023-04-03T17:13:17;3.90;;;2.17;;
62010;SDS011;47967;51.756;10.174;2023-04-03T17:17:20;3.83;;;1.90;;
62010;SDS011;47967;51.756;10.174;2023-04-03T17:21:24;4.35;;;1.67;;
62010;SDS011;47967;51.756;10.174;2023-04-03T17:25:29;2.10;;;1.30;;
62010;SDS011;47967;51.756;10.174;2023-04-03T17:29:31;7.63;;;2.00;;
62010;SDS011;47967;51.756;10.174;2023-04-03T17:33:34;2.20;;;1.40;;
62010;SDS011;47967;51.756;10.174;2023-04-03T17:37:36;2.03;;;1.60;;
62010;SDS011;47967;51.756;10.174;2023-04-03T17:41:40;3.42;;;1.80;;
62010;SDS011;47967;51.756;10.174;2023-04-03T17:45:46;2.25;;;1.38;;
62010;SDS011;47967;51.756;10.174;2023-04-03T17:49:48;3.10;;;1.17;;
62010;SDS011;47967;51.756;10.174;2023-04-03T17:53:51;3.60;;;2.40;;
62010;SDS011;47967;51.756;10.174;2023-04-03T17:57:56;2.35;;;1.23;;
62010;SDS011;47967;51.756;10.174;2023-04-03T18:01:58;3.78;;;1.40;;
62010;SDS011;47967;51.756;10.174;2023-04-03T18:06:01;2.90;;;1.67;;
62010;SDS011;47967;51.756;10.174;2023-04-03T18:10:05;4.25;;;1.63;;
62010;SDS011;47967;51.756;10.174;2023-04-03T18:14:10;4.40;;;1.60;;
62010;SDS011;47967;51.756;10.174;2023-04-03T18:18:15;3.55;;;1.55;;
62010;SDS011;47967;51.756;10.174;2023-04-03T18:22:18;1.73;;;1.23;;
62010;SDS011;47967;51.756;10.174;2023-04-03T18:26:23;3.65;;;1.80;;
62010;SDS011;47967;51.756;10.174;2023-04-03T18:30:29;4.93;;;2.53;;
62010;SDS011;47967;51.756;10.174;2023-04-03T18:34:32;6.45;;;2.25;;
62010;SDS011;47967;51.756;10.174;2023-04-03T18:38:36;5.45;;;1.67;;
62010;SDS011;47967;51.756;10.174;2023-04-03T18:42:40;3.35;;;1.40;;
62010;SDS011;47967;51.756;10.174;2023-04-03T18:46:45;3.22;;;1.17;;
62010;SDS011;47967;51.756;10.174;2023-04-03T18:50:48;4.30;;;1.45;;
62010;SDS011;47967;51.756;10.174;2023-04-03T18:54:50;8.33;;;2.53;;
62010;SDS011;47967;51.756;10.174;2023-04-03T18:58:53;7.57;;;2.23;;
62010;SDS011;47967;51.756;10.174;2023-04-03T19:02:57;7.43;;;2.37;;
62010;SDS011;47967;51.756;10.174;2023-04-03T19:07:00;6.43;;;2.75;;
62010;SDS011;47967;51.756;10.174;2023-04-03T19:11:05;3.95;;;1.60;;
62010;SDS011;47967;51.756;10.174;2023-04-03T19:15:08;3.50;;;1.80;;
62010;SDS011;47967;51.756;10.174;2023-04-03T19:19:13;6.32;;;2.97;;
62010;SDS011;47967;51.756;10.174;2023-04-03T19:23:15;5.93;;;2.00;;
62010;SDS011;47967;51.756;10.174;2023-04-03T19:27:19;7.53;;;3.10;;
62010;SDS011;47967;51.756;10.174;2023-04-03T19:31:21;6.77;;;3.00;;
62010;SDS011;47967;51.756;10.174;2023-04-03T19:35:25;4.83;;;3.07;;
62010;SDS011;47967;51.756;10.174;2023-04-03T19:39:28;5.97;;;2.95;;
62010;SDS011;47967;51.756;10.174;2023-04-03T19:43:35;6.57;;;2.75;;
62010;SDS011;47967;51.756;10.174;2023-04-03T19:47:37;9.37;;;3.37;;
62010;SDS011;47967;51.756;10.174;2023-04-03T19:51:42;9.20;;;2.58;;
62010;SDS011;47967;51.756;10.174;2023-04-03T19:55:45;7.25;;;2.78;;
62010;SDS011;47967;51.756;10.174;2023-04-03T19:59:48;5.05;;;2.55;;
62010;SDS011;47967;51.756;10.174;2023-04-03T20:03:50;5.73;;;2.30;;
62010;SDS011;47967;51.756;10.174;2023-04-03T20:07:54;7.27;;;2.80;;
62010;SDS011;47967;51.756;10.174;2023-04-03T20:11:57;5.03;;;2.22;;
62010;SDS011;47967;51.756;10.174;2023-04-03T20:16:01;3.67;;;1.60;;
62010;SDS011;47967;51.756;10.174;2023-04-03T20:24:09;4.40;;;2.63;;
62010;SDS011;47967;51.756;10.174;2023-04-03T20:28:15;5.20;;;1.90;;
62010;SDS011;47967;51.756;10.174;2023-04-03T20:36:22;3.87;;;1.97;;
62010;SDS011;47967;51.756;10.174;2023-04-03T20:40:28;6.10;;;3.17;;
62010;SDS011;47967;51.756;10.174;2023-04-03T20:44:30;5.18;;;1.90;;
62010;SDS011;47967;51.756;10.174;2023-04-03T20:48:33;6.63;;;2.40;;
62010;SDS011;47967;51.756;10.174;2023-04-03T20:56:40;6.00;;;2.53;;
